Terminal Aerodrome Forecast
Issued by NWS

Home | Current Version | Previous Version | Text Only | Print | Product List | Glossary On
Versions: 1 2 3 4 5 6 7 8 9 10 11 12 13 14 15 16 17 18 19 20 21 22 23 24 25 26 27 28 29 30 31 32 33 34 35 36 37 38
000
FTUS43 KFGF 191139
TAFBJI
TAF
KBJI 191139Z 1912/2012 33005KT P6SM BKN010
      TEMPO 1912/1914 1/2SM FG
     FM191600 36003KT P6SM BKN050
     FM192300 10006KT P6SM SCT120=

USA.gov is the U.S. government's official web portal to all federal, state and local government web resources and services.